Time;durP1;ratioP1;P1;durP2;ratioP2;P2;SDS_P1;SDS_P2;PMS_P1;PMS_P2;Temp;Humidity;BMP_temperature;BMP_pressure;BME280_temperature;BME280_humidity;BME280_pressure;Samples;Min_cycle;Max_cycle;Signal;HPM_P1;HPM_P2
2021/03/09 00:00:25;;;;;;;41.85;34.83;;;;;;;6.66;76.29;100622.78;5115678;28;20072;-73
2021/03/09 00:03:29;;;;;;;43.22;34.83;;;;;;;6.67;76.64;100619.97;5098916;28;20047;-74
2021/03/09 00:06:34;;;;;;;42.08;34.65;;;;;;;6.66;76.66;100631.63;5112449;28;20046;-76
2021/03/09 00:09:39;;;;;;;41.17;34.35;;;;;;;6.61;76.75;100628.41;5113667;28;20047;-76
2021/03/09 00:12:44;;;;;;;35.95;30.85;;;;;;;6.59;76.58;100627.66;5102367;28;20050;-74
2021/03/09 00:15:48;;;;;;;37.28;31.02;;;;;;;6.53;76.61;100628.06;5103620;28;20125;-74
2021/03/09 00:18:52;;;;;;;35.05;31.25;;;;;;;6.49;76.64;100631.91;5099229;28;20070;-74
2021/03/09 00:21:57;;;;;;;36.38;32.50;;;;;;;6.43;76.77;100642.97;5112912;28;20105;-75
2021/03/09 00:25:02;;;;;;;37.65;31.65;;;;;;;6.33;76.92;100631.19;5114418;28;20042;-74
2021/03/09 00:28:09;;;;;;;34.83;29.08;;;;;;;6.26;76.71;100629.88;5111008;28;20062;-74
2021/03/09 00:31:14;;;;;;;33.97;30.27;;;;;;;6.08;77.06;100633.75;5099345;28;20043;-75
2021/03/09 00:34:18;;;;;;;35.78;29.98;;;;;;;6.08;77.32;100631.09;5088994;28;20047;-76
2021/03/09 00:37:23;;;;;;;35.33;30.83;;;;;;;6.06;77.44;100630.34;5114138;28;20401;-76
2021/03/09 00:40:27;;;;;;;40.80;31.85;;;;;;;6.08;77.49;100631.09;5115268;28;20043;-73
2021/03/09 00:43:31;;;;;;;37.53;31.33;;;;;;;6.14;77.43;100628.03;5110791;28;20059;-75
2021/03/09 00:46:36;;;;;;;37.42;30.85;;;;;;;6.21;76.89;100634.66;5112215;28;20402;-71
2021/03/09 00:49:41;;;;;;;35.83;29.05;;;;;;;6.28;76.58;100635.97;5113390;28;20054;-74
2021/03/09 00:52:46;;;;;;;39.50;29.85;;;;;;;6.34;76.41;100628.44;5114898;28;20058;-73
2021/03/09 00:55:50;;;;;;;35.65;29.55;;;;;;;6.32;76.06;100633.00;5102307;28;20031;-74
2021/03/09 00:58:54;;;;;;;36.78;28.35;;;;;;;6.38;76.00;100629.09;5111319;28;20051;-73
2021/03/09 01:01:59;;;;;;;34.75;28.30;;;;;;;6.40;75.78;100628.03;5093702;28;20058;-74
2021/03/09 01:05:03;;;;;;;44.85;30.30;;;;;;;6.40;75.63;100636.03;5111432;28;20094;-72
2021/03/09 01:08:08;;;;;;;33.58;28.73;;;;;;;6.40;75.91;100633.34;5085399;28;20138;-76
2021/03/09 01:11:12;;;;;;;37.28;28.23;;;;;;;6.40;75.91;100632.50;5109248;28;20047;-73
2021/03/09 01:14:16;;;;;;;33.20;28.95;;;;;;;6.22;76.31;100631.06;5106555;28;20043;-74
2021/03/09 01:17:21;;;;;;;36.30;30.13;;;;;;;6.22;76.37;100631.06;5101661;28;20043;-75
2021/03/09 01:20:26;;;;;;;38.35;30.52;;;;;;;6.21;76.28;100634.66;5108822;28;20059;-74
2021/03/09 01:23:30;;;;;;;37.22;29.05;;;;;;;6.32;76.07;100622.34;5092902;28;20043;-75
2021/03/09 01:26:34;;;;;;;;;;;;;;;6.26;76.47;100614.75;5107613;28;20059;-73
2021/03/09 01:29:39;;;;;;;41.08;30.92;;;;;;;6.41;76.05;100615.56;5103986;28;19916;-74
2021/03/09 01:32:43;;;;;;;33.78;29.70;;;;;;;6.50;75.70;100617.59;5088215;28;20410;-75
2021/03/09 01:35:48;;;;;;;37.28;30.05;;;;;;;6.54;75.58;100609.28;5109207;28;20046;-75
2021/03/09 01:38:53;;;;;;;38.80;30.80;;;;;;;6.60;75.46;100616.03;5099942;28;20505;-73
2021/03/09 01:41:57;;;;;;;39.67;30.70;;;;;;;6.61;75.26;100603.56;5103135;28;20075;-74
2021/03/09 01:45:04;;;;;;;37.28;29.23;;;;;;;6.49;75.59;100597.25;5091911;28;20043;-75
2021/03/09 01:48:09;;;;;;;32.45;28.95;;;;;;;6.55;75.68;100608.34;5098234;28;20054;-76
2021/03/09 01:51:18;;;;;;;34.13;29.23;;;;;;;6.58;75.70;100599.28;5083416;28;20058;-74
2021/03/09 01:54:22;;;;;;;31.58;27.95;;;;;;;6.63;75.55;100599.81;5098934;28;20055;-76
2021/03/09 01:57:26;;;;;;;39.00;32.40;;;;;;;6.62;75.63;100603.44;5099072;28;20046;-73
2021/03/09 02:00:31;;;;;;;34.58;30.45;;;;;;;6.63;75.63;100596.28;5100494;28;20394;-76
2021/03/09 02:03:35;;;;;;;39.67;32.08;;;;;;;6.67;75.77;100595.13;5085813;28;20458;-76
2021/03/09 02:06:39;;;;;;;36.40;30.05;;;;;;;6.75;75.34;100582.97;5105290;28;20489;-76
2021/03/09 02:09:44;;;;;;;36.13;29.63;;;;;;;6.79;75.09;100583.66;5092076;28;20047;-76
2021/03/09 02:12:54;;;;;;;35.58;30.23;;;;;;;6.70;75.32;100574.44;5111508;28;20094;-75
2021/03/09 02:16:07;;;;;;;36.33;29.17;;;;;;;6.68;75.23;100579.03;5090514;28;20047;-75
2021/03/09 02:19:30;;;;;;;35.85;29.50;;;;;;;6.71;75.31;100580.63;5094169;28;20051;-76
2021/03/09 02:23:11;;;;;;;32.90;29.48;;;;;;;6.75;74.96;100579.47;5107304;28;20054;-76
2021/03/09 02:26:34;;;;;;;36.80;29.58;;;;;;;6.61;75.26;100575.06;5105396;28;20043;-76
2021/03/09 02:29:39;;;;;;;33.10;29.65;;;;;;;6.65;75.57;100568.56;5085601;28;20043;-73
2021/03/09 02:32:50;;;;;;;34.95;29.50;;;;;;;6.59;75.62;100561.00;5105312;28;20051;-76
2021/03/09 02:35:57;;;;;;;37.90;30.83;;;;;;;6.57;75.91;100560.22;5098079;28;20047;-76
2021/03/09 02:39:06;;;;;;;35.53;31.48;;;;;;;6.62;75.83;100554.59;5096363;28;20046;-76
2021/03/09 02:42:13;;;;;;;39.05;30.42;;;;;;;6.59;76.71;100553.00;5101807;28;20437;-75
2021/03/09 02:45:21;;;;;;;32.60;29.08;;;;;;;6.61;76.79;100558.22;5093247;28;20509;-76
2021/03/09 02:48:26;;;;;;;32.30;28.85;;;;;;;6.64;77.29;100558.00;5085164;28;20071;-74
2021/03/09 02:51:34;;;;;;;34.47;30.80;;;;;;;6.65;77.33;100557.91;5108338;28;20046;-76
2021/03/09 02:54:41;;;;;;;36.83;32.92;;;;;;;6.65;77.44;100552.56;5099163;28;20050;-75
2021/03/09 02:57:47;;;;;;;36.08;31.85;;;;;;;6.65;77.55;100544.56;5109833;28;20047;-76
2021/03/09 03:00:53;;;;;;;37.70;33.60;;;;;;;6.70;77.61;100550.44;5108238;28;20046;-76
2021/03/09 03:04:00;;;;;;;42.67;35.92;;;;;;;6.65;78.37;100549.91;5096958;28;20506;-75
2021/03/09 03:07:07;;;;;;;40.53;34.10;;;;;;;6.63;78.80;100541.16;5118699;28;20059;-75
2021/03/09 03:10:17;;;;;;;44.35;35.92;;;;;;;6.65;79.15;100544.56;5113324;28;20528;-76
2021/03/09 03:13:23;;;;;;;48.45;36.70;;;;;;;6.50;79.57;100542.94;5110670;28;20050;-75
2021/03/09 03:16:28;;;;;;;38.10;33.85;;;;;;;6.51;80.21;100542.00;5112132;28;20596;-75
2021/03/09 03:19:33;;;;;;;37.95;33.95;;;;;;;6.56;80.08;100539.88;5111980;28;20118;-74
2021/03/09 03:22:40;;;;;;;43.00;36.13;;;;;;;6.68;79.77;100554.16;5113849;28;20510;-76
2021/03/09 03:25:52;;;;;;;40.50;33.58;;;;;;;6.65;80.07;100552.56;5115624;28;20066;-74
2021/03/09 03:28:57;;;;;;;39.63;35.17;;;;;;;6.55;80.49;100548.81;5100615;28;20047;-75
2021/03/09 03:32:01;;;;;;;40.53;33.35;;;;;;;6.54;80.68;100549.78;5114336;28;20054;-72
2021/03/09 03:35:07;;;;;;;38.30;33.83;;;;;;;6.62;80.56;100547.44;5115797;28;20042;-73
2021/03/09 03:38:14;;;;;;;37.08;33.25;;;;;;;6.65;80.37;100551.69;5117132;28;20047;-74
2021/03/09 03:41:19;;;;;;;39.63;34.70;;;;;;;6.65;80.35;100544.56;5113838;28;20042;-74
2021/03/09 03:44:24;;;;;;;40.10;34.47;;;;;;;6.70;80.38;100542.44;5114961;28;20520;-77
2021/03/09 03:47:28;;;;;;;39.67;35.15;;;;;;;6.70;80.21;100538.91;5115965;28;20480;-75
2021/03/09 03:50:32;;;;;;;40.00;34.08;;;;;;;6.77;80.33;100546.38;5091344;28;20487;-75
2021/03/09 03:54:14;;;;;;;40.05;34.67;;;;;;;6.74;79.88;100545.75;5091499;28;20050;-75
2021/03/09 03:57:27;;;;;;;39.95;34.97;;;;;;;6.70;80.19;100537.09;5092722;28;20067;-76
2021/03/09 04:00:33;;;;;;;40.03;34.03;;;;;;;6.69;80.22;100546.03;5096238;28;20430;-74
2021/03/09 04:03:38;;;;;;;37.88;33.78;;;;;;;6.70;80.17;100539.75;5092410;28;20043;-74
2021/03/09 04:06:52;;;;;;;36.95;32.97;;;;;;;6.76;80.13;100543.84;5093903;28;20051;-77
2021/03/09 04:09:56;;;;;;;44.63;36.42;;;;;;;6.70;80.26;100542.44;5092227;28;20498;-75
2021/03/09 04:13:01;;;;;;;40.63;35.00;;;;;;;6.77;80.28;100542.84;5092156;28;20055;-76
2021/03/09 04:16:05;;;;;;;41.22;35.35;;;;;;;6.71;80.35;100538.81;5093402;28;20387;-76
2021/03/09 04:19:12;;;;;;;44.33;36.53;;;;;;;6.66;80.94;100543.63;5095248;28;20521;-76
2021/03/09 04:22:17;;;;;;;40.55;34.70;;;;;;;6.65;81.37;100539.22;5091174;28;20055;-76
2021/03/09 04:25:22;;;;;;;40.20;36.05;;;;;;;6.66;81.24;100532.94;5092083;28;20059;-76
2021/03/09 04:28:26;;;;;;;44.42;36.35;;;;;;;6.66;81.20;100535.63;5093397;28;20047;-76
2021/03/09 04:31:31;;;;;;;40.00;35.47;;;;;;;6.59;81.65;100531.66;5084729;28;20048;-73
2021/03/09 04:34:35;;;;;;;41.67;35.10;;;;;;;6.46;81.62;100525.44;5075246;28;20060;-73
2021/03/09 04:37:41;;;;;;;37.83;33.80;;;;;;;6.46;81.77;100522.78;5088485;28;20047;-76
2021/03/09 04:40:45;;;;;;;37.75;33.67;;;;;;;6.53;81.53;100526.75;5079074;28;20043;-73
2021/03/09 04:43:49;;;;;;;42.10;34.05;;;;;;;6.54;81.16;100526.63;5089351;28;20064;-76
2021/03/09 04:46:54;;;;;;;39.30;34.88;;;;;;;6.59;80.66;100530.81;5082067;28;20047;-73
2021/03/09 04:49:59;;;;;;;38.22;34.20;;;;;;;6.57;80.40;100531.75;5083089;28;20063;-76
2021/03/09 04:53:05;;;;;;;38.88;34.80;;;;;;;6.57;80.15;100528.22;5090038;28;20501;-73
2021/03/09 04:56:10;;;;;;;39.28;35.00;;;;;;;6.64;80.16;100536.69;5076114;28;20051;-75
2021/03/09 04:59:14;;;;;;;40.42;35.00;;;;;;;6.65;79.92;100539.22;5087357;28;20051;-74
2021/03/09 05:02:18;;;;;;;41.00;34.25;;;;;;;6.70;79.61;100530.91;5080027;28;20047;-75
2021/03/09 05:05:24;;;;;;;41.35;36.88;;;;;;;6.70;79.38;100537.09;5080666;28;20052;-75
2021/03/09 05:08:28;;;;;;;38.65;34.40;;;;;;;6.68;79.69;100540.84;5089117;28;20047;-74
2021/03/09 05:11:33;;;;;;;39.15;35.13;;;;;;;6.69;79.70;100546.03;5079278;28;20032;-72
2021/03/09 05:14:37;;;;;;;38.97;34.72;;;;;;;6.69;79.67;100538.03;5091617;28;20043;-75
2021/03/09 05:17:42;;;;;;;40.38;36.10;;;;;;;6.66;79.77;100540.94;5082961;28;20047;-73
2021/03/09 05:20:46;;;;;;;41.55;37.08;;;;;;;6.64;80.18;100547.34;5087096;28;20079;-75
2021/03/09 05:23:50;;;;;;;41.65;36.13;;;;;;;6.67;80.33;100541.78;5088739;28;20514;-72
2021/03/09 05:26:54;;;;;;;;;;;;;;;6.49;80.71;100542.06;5076011;28;20048;-74
2021/03/09 05:29:58;;;;;;;42.28;37.42;;;;;;;6.53;81.02;100556.06;5088263;28;19916;-76
2021/03/09 05:33:03;;;;;;;42.03;37.55;;;;;;;6.56;81.19;100550.53;5079553;28;20047;-76
2021/03/09 05:36:08;;;;;;;42.28;37.72;;;;;;;6.59;81.58;100557.47;5088061;28;21030;-75
2021/03/09 05:39:12;;;;;;;44.38;38.97;;;;;;;6.55;82.03;100557.69;5082487;28;20089;-74
2021/03/09 05:42:16;;;;;;;43.88;39.08;;;;;;;6.49;82.49;100554.59;5077486;28;20119;-74
2021/03/09 05:45:23;;;;;;;42.70;38.15;;;;;;;6.43;82.71;100560.31;5085800;28;20047;-72
2021/03/09 05:48:27;;;;;;;46.85;38.90;;;;;;;6.37;83.20;100558.91;5080671;28;20040;-76
2021/03/09 05:51:31;;;;;;;49.75;40.25;;;;;;;6.40;83.30;100566.72;5110494;28;20142;-75
2021/03/09 05:54:36;;;;;;;43.60;38.53;;;;;;;6.39;83.58;100567.66;5100673;28;20050;-71
2021/03/09 05:57:41;;;;;;;45.80;39.92;;;;;;;6.41;83.88;100575.56;5110853;28;20046;-72
2021/03/09 06:00:45;;;;;;;45.67;40.75;;;;;;;6.44;83.76;100575.38;5112001;28;20075;-74
2021/03/09 06:03:50;;;;;;;51.55;45.95;;;;;;;6.44;83.74;100570.88;5094054;28;20051;-76
2021/03/09 06:06:54;;;;;;;84.38;66.03;;;;;;;6.50;83.68;100577.59;5108785;28;20039;-76
2021/03/09 06:09:58;;;;;;;63.58;51.90;;;;;;;6.52;83.52;100575.69;5080014;28;20035;-75
2021/03/09 06:13:03;;;;;;;45.72;40.80;;;;;;;6.40;83.37;100572.03;5088342;28;20039;-72
2021/03/09 06:16:07;;;;;;;49.20;42.15;;;;;;;6.34;83.96;100579.59;5097308;28;20420;-75
2021/03/09 06:19:11;;;;;;;48.85;43.55;;;;;;;6.33;84.46;100572.56;5085055;28;20047;-76
2021/03/09 06:22:17;;;;;;;47.22;41.30;;;;;;;6.36;84.33;100585.69;5111334;28;20513;-74
2021/03/09 06:25:31;;;;;;;47.22;40.97;;;;;;;6.40;84.54;100573.84;5101697;28;20046;-76
2021/03/09 06:28:35;;;;;;;47.33;40.72;;;;;;;6.47;84.22;100584.00;5082928;28;20062;-75
2021/03/09 06:32:01;;;;;;;47.22;41.30;;;;;;;6.49;83.92;100571.41;5094977;28;20043;-73
2021/03/09 06:35:06;;;;;;;48.08;40.30;;;;;;;6.55;84.02;100568.34;5101005;28;20054;-77
2021/03/09 06:38:28;;;;;;;46.70;39.33;;;;;;;6.61;83.83;100575.06;5094663;28;20046;-74
2021/03/09 06:41:32;;;;;;;43.90;39.10;;;;;;;6.68;83.27;100586.19;5103913;28;20042;-76
2021/03/09 06:44:38;;;;;;;44.03;38.33;;;;;;;6.71;83.19;100585.97;5093863;28;20119;-74
2021/03/09 06:47:47;;;;;;;44.65;38.67;;;;;;;6.75;82.84;100587.47;5107339;28;20046;-73
2021/03/09 06:50:52;;;;;;;47.47;38.88;;;;;;;6.81;82.42;100589.72;5101459;28;20046;-72
2021/03/09 06:54:03;;;;;;;47.30;38.63;;;;;;;6.85;82.57;100600.06;5099927;28;20043;-76
2021/03/09 06:57:09;;;;;;;50.10;41.50;;;;;;;6.83;82.60;100595.81;5085940;28;20051;-77
2021/03/09 07:00:13;;;;;;;51.83;41.95;;;;;;;6.74;83.60;100591.09;5070969;28;20063;-74
2021/03/09 07:03:38;;;;;;;55.60;43.15;;;;;;;6.59;83.58;100597.47;5081266;28;20043;-77
2021/03/09 07:06:46;;;;;;;52.85;45.33;;;;;;;6.42;83.93;100593.25;5088352;28;20513;-76
2021/03/09 07:10:05;;;;;;;56.65;46.40;;;;;;;6.32;84.72;100595.69;5102544;28;20035;-77
2021/03/09 07:13:10;;;;;;;57.00;45.35;;;;;;;6.39;85.06;100599.66;5074731;28;20047;-73
2021/03/09 07:16:15;;;;;;;54.22;46.78;;;;;;;6.43;85.00;100602.97;5080353;28;20048;-74
2021/03/09 07:19:25;;;;;;;56.10;44.63;;;;;;;6.55;84.65;100599.47;5076680;28;20048;-75
2021/03/09 07:22:30;;;;;;;49.92;44.55;;;;;;;6.64;84.28;100600.69;5093309;28;20395;-75
2021/03/09 07:25:36;;;;;;;57.30;44.33;;;;;;;6.76;83.59;100595.38;5078579;28;20055;-76
2021/03/09 07:28:45;;;;;;;53.58;44.72;;;;;;;6.89;83.46;100600.69;5078336;28;20047;-75
2021/03/09 07:31:54;;;;;;;52.35;46.65;;;;;;;6.90;82.94;100597.94;5074877;28;20048;-75
2021/03/09 07:34:59;;;;;;;48.00;42.92;;;;;;;7.11;82.08;100591.09;5089081;28;20055;-74
2021/03/09 07:38:23;;;;;;;53.22;41.97;;;;;;;7.27;81.69;100588.22;5073022;28;20419;-79
2021/03/09 07:41:28;;;;;;;45.72;40.83;;;;;;;7.54;81.24;100590.75;5080333;28;20399;-73
2021/03/09 07:44:32;;;;;;;45.03;40.17;;;;;;;7.83;80.49;100597.50;5074370;28;20142;-74
2021/03/09 07:47:50;;;;;;;45.88;41.08;;;;;;;7.96;79.20;100595.66;5077670;28;20102;-75
2021/03/09 07:51:03;;;;;;;47.95;41.72;;;;;;;8.19;78.46;100585.97;5078798;28;20043;-75
2021/03/09 07:54:10;;;;;;;47.53;40.25;;;;;;;8.24;77.87;100595.34;5078862;28;20352;-72
2021/03/09 07:57:20;;;;;;;44.00;39.17;;;;;;;8.32;77.50;100594.81;5079398;28;20052;-73
2021/03/09 08:00:24;;;;;;;43.13;38.35;;;;;;;8.38;76.99;100597.88;5091625;28;20399;-74
2021/03/09 08:03:39;;;;;;;42.13;37.58;;;;;;;8.48;76.93;100592.69;5092065;28;20055;-74
2021/03/09 08:06:44;;;;;;;45.22;37.88;;;;;;;8.75;76.13;100592.41;5082800;28;20051;-73
2021/03/09 08:09:49;;;;;;;41.67;37.05;;;;;;;8.97;74.76;100595.13;5096143;28;20055;-72
2021/03/09 08:13:15;;;;;;;44.50;37.53;;;;;;;9.05;74.15;100592.72;5096122;28;20585;-72
2021/03/09 08:16:20;;;;;;;46.83;36.60;;;;;;;9.14;73.63;100592.88;5082666;28;20487;-72
2021/03/09 08:19:24;;;;;;;47.97;37.45;;;;;;;9.29;73.41;100596.16;5075535;28;20051;-72
2021/03/09 08:22:37;;;;;;;41.33;36.95;;;;;;;9.61;72.18;100598.97;5063379;28;20166;-73
2021/03/09 08:25:41;;;;;;;39.05;34.90;;;;;;;9.92;70.83;100589.31;5075768;28;20052;-76
2021/03/09 08:28:46;;;;;;;38.35;34.15;;;;;;;10.41;69.18;100587.00;5075743;28;20051;-73
2021/03/09 08:31:50;;;;;;;44.33;35.33;;;;;;;10.80;67.18;100586.34;5075867;28;20400;-72
2021/03/09 08:35:12;;;;;;;38.45;33.10;;;;;;;10.78;66.43;100588.31;5063207;28;20483;-75
2021/03/09 08:38:20;;;;;;;37.70;33.60;;;;;;;11.03;66.20;100589.75;5075554;28;20041;-72
2021/03/09 08:41:24;;;;;;;38.47;33.83;;;;;;;11.05;65.59;100594.00;5075126;28;20044;-73
2021/03/09 08:44:29;;;;;;;41.85;34.53;;;;;;;11.14;65.02;100595.03;5075370;28;20040;-72
2021/03/09 08:47:51;;;;;;;41.75;33.60;;;;;;;10.92;63.92;100589.81;5062640;28;20036;-73
2021/03/09 08:50:56;;;;;;;40.28;34.67;;;;;;;10.89;64.88;100588.22;5075274;28;20041;-75
2021/03/09 08:54:01;;;;;;;44.40;36.13;;;;;;;10.94;64.42;100590.53;5075155;28;20044;-75
2021/03/09 08:57:10;;;;;;;39.42;32.90;;;;;;;11.27;64.73;100590.31;5075357;28;20060;-74
2021/03/09 09:00:15;;;;;;;39.53;33.33;;;;;;;11.47;63.76;100589.44;5075001;28;20049;-75
2021/03/09 09:03:37;;;;;;;36.95;33.03;;;;;;;11.53;61.84;100594.25;5074951;28;20045;-74
2021/03/09 09:06:41;;;;;;;37.35;33.05;;;;;;;11.58;60.40;100592.00;5075316;28;20052;-75
2021/03/09 09:09:46;;;;;;;40.25;32.88;;;;;;;11.73;60.05;100590.69;5092930;28;20044;-73
2021/03/09 09:12:55;;;;;;;40.15;32.53;;;;;;;11.82;58.95;100583.66;5082694;28;20040;-74
2021/03/09 09:16:00;;;;;;;35.78;32.05;;;;;;;12.39;57.33;100583.75;5094569;28;20036;-73
2021/03/09 09:19:04;;;;;;;43.08;32.90;;;;;;;12.78;55.87;100576.53;5094746;28;20036;-73
2021/03/09 09:22:09;;;;;;;37.13;33.13;;;;;;;13.26;54.10;100579.16;5082589;28;20036;-74
2021/03/09 09:25:15;;;;;;;39.15;31.92;;;;;;;13.77;52.25;100570.59;5094766;28;20044;-74
2021/03/09 09:28:24;;;;;;;38.33;32.17;;;;;;;14.83;49.55;100562.59;5092500;28;20044;-72
2021/03/09 09:31:28;;;;;;;35.22;30.77;;;;;;;15.27;47.98;100558.84;5094754;28;20044;-74
2021/03/09 09:34:38;;;;;;;34.83;31.13;;;;;;;15.89;47.46;100557.69;5094509;28;20048;-73
2021/03/09 09:38:10;;;;;;;33.05;29.48;;;;;;;16.46;45.37;100555.09;5094980;28;20036;-72
2021/03/09 09:41:15;;;;;;;34.40;30.63;;;;;;;16.17;44.72;100550.16;5081983;28;20047;-73
2021/03/09 09:44:19;;;;;;;36.63;32.83;;;;;;;15.77;45.51;100548.16;5094416;28;20500;-72
2021/03/09 09:47:24;;;;;;;36.42;32.58;;;;;;;15.42;46.18;100551.00;5092925;28;20052;-73
2021/03/09 09:50:29;;;;;;;39.53;32.53;;;;;;;15.20;45.76;100546.13;5094413;28;20040;-72
2021/03/09 09:53:39;;;;;;;35.95;32.20;;;;;;;15.18;46.37;100540.03;5094324;28;20048;-73
2021/03/09 09:56:44;;;;;;;36.05;32.13;;;;;;;15.42;46.41;100541.03;5081757;28;20044;-72
2021/03/09 09:59:48;;;;;;;38.13;33.53;;;;;;;14.92;46.64;100542.72;5094137;28;20044;-72
2021/03/09 10:03:14;;;;;;;39.95;33.40;;;;;;;14.99;46.82;100541.94;5081390;28;20036;-72
2021/03/09 10:06:19;;;;;;;36.53;32.72;;;;;;;14.62;47.04;100530.50;5094173;28;20407;-72
2021/03/09 10:09:25;;;;;;;37.97;33.67;;;;;;;14.40;47.00;100528.28;5058313;28;20044;-73
2021/03/09 10:12:34;;;;;;;37.60;33.63;;;;;;;14.33;47.72;100517.25;5093898;28;20395;-72
2021/03/09 10:15:46;;;;;;;39.03;33.80;;;;;;;14.22;48.63;100522.84;5093528;28;20035;-73
2021/03/09 10:18:51;;;;;;;39.80;35.45;;;;;;;13.43;50.63;100510.97;5073640;28;20049;-72
2021/03/09 10:21:56;;;;;;;39.03;34.83;;;;;;;13.11;51.85;100517.78;5073608;28;20040;-74
2021/03/09 10:25:14;;;;;;;38.22;34.15;;;;;;;13.04;51.07;100515.63;5073380;28;20072;-72
2021/03/09 10:28:25;;;;;;;41.50;36.88;;;;;;;12.86;51.43;100520.06;5072713;28;20040;-74
2021/03/09 10:31:47;;;;;;;38.17;34.15;;;;;;;13.11;51.69;100509.72;5073094;28;20044;-73
2021/03/09 10:34:53;;;;;;;39.92;34.25;;;;;;;13.37;50.24;100506.19;5073466;28;20595;-72
2021/03/09 10:37:57;;;;;;;35.58;31.75;;;;;;;13.44;49.59;100506.44;5073113;28;20048;-73
2021/03/09 10:41:02;;;;;;;35.42;30.73;;;;;;;12.84;49.08;100510.44;5060988;28;20044;-72
2021/03/09 10:44:06;;;;;;;38.50;33.08;;;;;;;12.66;50.18;100504.09;5073197;28;20044;-74
2021/03/09 10:47:12;;;;;;;38.85;34.60;;;;;;;12.36;52.33;100500.59;5073285;28;20037;-73
2021/03/09 10:50:19;;;;;;;38.63;34.42;;;;;;;12.33;52.54;100503.56;5073390;28;20044;-73
2021/03/09 10:53:23;;;;;;;40.50;35.35;;;;;;;12.60;52.28;100499.28;5072854;28;20424;-72
2021/03/09 10:56:28;;;;;;;40.63;35.17;;;;;;;12.23;52.90;100505.41;5073138;28;20037;-76
2021/03/09 10:59:33;;;;;;;41.30;35.00;;;;;;;12.01;52.43;100496.75;5072850;28;20044;-72
2021/03/09 11:02:38;;;;;;;40.85;33.13;;;;;;;12.16;52.85;100493.50;5073078;28;20040;-72
2021/03/09 11:05:43;;;;;;;39.83;34.30;;;;;;;12.35;52.24;100496.19;5064962;28;20041;-75
2021/03/09 11:08:48;;;;;;;47.00;37.53;;;;;;;12.34;53.21;100489.09;5087124;28;20032;-76
2021/03/09 11:11:52;;;;;;;43.75;35.75;;;;;;;12.33;52.72;100483.88;5077377;28;20048;-72
2021/03/09 11:14:57;;;;;;;40.60;35.03;;;;;;;12.44;51.94;100485.56;5080947;28;20483;-73
2021/03/09 11:18:01;;;;;;;39.38;34.25;;;;;;;12.29;51.78;100485.97;5080452;28;20040;-73
2021/03/09 11:21:07;;;;;;;44.58;35.85;;;;;;;12.13;53.58;100493.78;5073938;28;20476;-71
2021/03/09 11:24:12;;;;;;;38.97;34.63;;;;;;;12.08;53.84;100490.66;5064271;28;20044;-72
2021/03/09 11:27:16;;;;;;;44.28;35.92;;;;;;;11.89;54.59;100484.44;5065504;28;20064;-74
2021/03/09 11:30:21;;;;;;;43.80;35.70;;;;;;;11.81;55.00;100479.75;5060715;28;20496;-73
2021/03/09 11:33:26;;;;;;;40.65;36.25;;;;;;;11.80;54.48;100474.50;5080429;28;20040;-75
2021/03/09 11:36:31;;;;;;;43.45;35.60;;;;;;;12.00;54.69;100474.38;5076748;28;20036;-74
2021/03/09 11:39:36;;;;;;;40.50;35.22;;;;;;;11.91;52.99;100474.38;5089788;28;20056;-76
2021/03/09 11:42:40;;;;;;;43.08;35.90;;;;;;;12.04;53.26;100477.66;5064458;28;20044;-75
2021/03/09 11:45:47;;;;;;;42.42;34.58;;;;;;;12.09;52.78;100465.47;5080062;28;20410;-73
2021/03/09 11:48:51;;;;;;;41.30;35.47;;;;;;;11.97;53.23;100460.38;5089682;28;20515;-72
2021/03/09 11:51:56;;;;;;;42.88;35.88;;;;;;;11.97;53.18;100463.91;5079382;28;20049;-74
2021/03/09 11:55:00;;;;;;;42.10;36.00;;;;;;;12.21;52.93;100456.25;5092421;28;20048;-72
2021/03/09 11:58:04;;;;;;;45.80;36.47;;;;;;;12.21;52.16;100456.25;5086155;28;20041;-75
2021/03/09 12:01:09;;;;;;;42.13;35.53;;;;;;;12.19;51.72;100446.63;5078974;28;20044;-75
2021/03/09 12:04:13;;;;;;;43.83;35.15;;;;;;;12.19;52.36;100439.41;5082256;28;20044;-75
2021/03/09 12:07:19;;;;;;;42.72;34.92;;;;;;;12.14;51.45;100443.53;5085402;28;20471;-75
2021/03/09 12:10:24;;;;;;;40.38;33.58;;;;;;;12.24;51.00;100437.16;5070548;28;20056;-77
2021/03/09 12:13:28;;;;;;;38.05;33.45;;;;;;;12.32;50.97;100434.56;5090485;28;20044;-76
2021/03/09 12:16:32;;;;;;;44.10;34.10;;;;;;;12.52;50.29;100423.78;5065705;28;20048;-77
2021/03/09 12:19:36;;;;;;;42.80;33.45;;;;;;;12.71;51.01;100421.88;5087065;28;20072;-76
2021/03/09 12:22:41;;;;;;;46.13;32.83;;;;;;;12.62;49.76;100411.97;5085384;28;20340;-78
2021/03/09 12:25:45;;;;;;;36.95;32.95;;;;;;;12.47;50.14;100408.03;5088081;28;20043;-74
2021/03/09 12:28:50;;;;;;;39.17;33.13;;;;;;;12.57;50.18;100402.63;5090422;28;20371;-73
2021/03/09 12:31:54;;;;;;;47.38;34.25;;;;;;;12.57;51.42;100399.94;5088656;28;20044;-74
2021/03/09 12:34:59;;;;;;;39.50;35.30;;;;;;;12.36;51.65;100394.75;5087539;28;20040;-73
2021/03/09 12:38:03;;;;;;;38.65;34.25;;;;;;;12.08;51.34;100396.50;5066399;28;20037;-72
2021/03/09 12:41:07;;;;;;;42.05;34.90;;;;;;;12.00;51.47;100393.66;5089104;28;20051;-73
2021/03/09 12:44:12;;;;;;;39.78;35.50;;;;;;;12.16;52.42;100380.50;5081793;28;20048;-76
2021/03/09 12:47:16;;;;;;;39.53;33.50;;;;;;;12.07;50.53;100384.03;5077801;28;20036;-72
2021/03/09 12:50:21;;;;;;;41.85;35.47;;;;;;;12.04;51.43;100370.88;5081249;28;20044;-71
2021/03/09 12:53:27;;;;;;;44.08;36.17;;;;;;;11.97;51.96;100372.47;5082285;28;20052;-71
2021/03/09 12:56:34;;;;;;;39.13;34.58;;;;;;;11.97;51.55;100371.59;5080311;28;20041;-72
2021/03/09 12:59:39;;;;;;;41.58;35.75;;;;;;;12.05;51.94;100355.56;5091458;28;20491;-72
2021/03/09 13:02:44;;;;;;;39.50;35.40;;;;;;;11.90;52.27;100355.16;5089435;28;20041;-72
2021/03/09 13:05:50;;;;;;;39.70;35.50;;;;;;;11.90;52.50;100347.09;5063951;28;20040;-72
2021/03/09 13:08:55;;;;;;;40.67;35.72;;;;;;;11.80;52.01;100342.75;5078371;28;20032;-72
2021/03/09 13:11:59;;;;;;;41.78;35.50;;;;;;;11.84;52.06;100342.31;5090800;28;20507;-71
2021/03/09 13:15:06;;;;;;;40.17;32.95;;;;;;;11.94;51.15;100334.22;5091495;28;20052;-74
2021/03/09 13:18:11;;;;;;;36.72;32.00;;;;;;;12.06;50.81;100325.84;5074647;28;20045;-74
2021/03/09 13:21:16;;;;;;;38.97;32.60;;;;;;;12.09;50.65;100325.56;5070483;28;20039;-71
2021/03/09 13:24:20;;;;;;;38.45;34.25;;;;;;;12.14;50.49;100320.59;5083736;28;20419;-73
2021/03/09 13:27:26;;;;;;;40.22;34.70;;;;;;;12.19;50.41;100320.16;5059839;28;20040;-76
2021/03/09 13:30:31;;;;;;;42.97;34.35;;;;;;;12.30;50.17;100309.19;5088731;28;20040;-73
2021/03/09 13:33:35;;;;;;;39.28;33.42;;;;;;;12.23;50.29;100319.72;5078037;28;20048;-72
2021/03/09 13:36:39;;;;;;;42.50;34.50;;;;;;;12.18;50.12;100305.84;5062635;28;20049;-74
2021/03/09 13:39:44;;;;;;;36.55;32.60;;;;;;;12.26;50.71;100294.34;5094208;28;20039;-75
2021/03/09 13:42:49;;;;;;;36.83;32.78;;;;;;;12.34;51.03;100292.59;5072406;28;20040;-73
2021/03/09 13:45:53;;;;;;;39.42;33.22;;;;;;;12.34;48.98;100295.28;5076093;28;20044;-72
2021/03/09 13:48:57;;;;;;;37.65;31.50;;;;;;;12.20;48.96;100287.72;5076727;28;20044;-73
2021/03/09 13:52:02;;;;;;;36.78;31.42;;;;;;;12.26;49.42;100294.34;5074016;28;20044;-73
2021/03/09 13:55:10;;;;;;;39.20;32.45;;;;;;;12.29;49.38;100281.44;5079091;28;20044;-72
2021/03/09 13:58:14;;;;;;;36.58;32.58;;;;;;;12.19;50.63;100280.66;5074110;28;20040;-75
2021/03/09 14:01:19;;;;;;;36.67;32.67;;;;;;;12.22;50.07;100282.19;5091739;28;20048;-75
2021/03/09 14:04:23;;;;;;;39.63;34.00;;;;;;;12.17;50.59;100279.09;5085761;28;20048;-74
2021/03/09 14:07:27;;;;;;;36.80;32.83;;;;;;;12.16;50.72;100280.06;5086315;28;20395;-73
2021/03/09 14:10:32;;;;;;;37.80;32.97;;;;;;;12.08;52.47;100274.56;5086281;28;20491;-74
2021/03/09 14:13:36;;;;;;;39.22;32.67;;;;;;;12.16;52.39;100278.25;5093319;28;20040;-73